createdAt,value
2018-05-06T00:01:44.265Z,74.10
2018-05-06T00:04:12.231Z,74.10
2018-05-06T00:06:40.314Z,74.00
2018-05-06T00:09:08.276Z,74.10
2018-05-06T00:11:37.787Z,74.10
2018-05-06T00:14:05.747Z,74.10
2018-05-06T00:16:33.825Z,74.00
2018-05-06T00:19:01.891Z,74.10
2018-05-06T00:21:29.867Z,74.20
2018-05-06T00:23:57.828Z,74.10
2018-05-06T00:26:25.793Z,74.20
2018-05-06T00:28:53.765Z,74.20
2018-05-06T00:31:21.737Z,74.30
2018-05-06T00:33:49.812Z,74.30
2018-05-06T00:36:18.488Z,75.10
2018-05-06T00:38:46.527Z,74.40
2018-05-06T00:41:14.643Z,75.10
2018-05-06T00:43:42.611Z,74.30
2018-05-06T00:46:12.115Z,74.30
2018-05-06T00:48:40.072Z,74.30
2018-05-06T00:51:08.045Z,74.30
2018-05-06T00:53:36.014Z,74.30
2018-05-06T00:56:03.979Z,74.30
2018-05-06T00:58:31.953Z,74.40
2018-05-06T01:01:00.637Z,74.50
2018-05-06T01:03:28.615Z,74.50
2018-05-06T01:05:56.673Z,75.20
2018-05-06T01:08:24.655Z,74.60
2018-05-06T01:10:52.726Z,74.60
2018-05-06T01:13:20.683Z,74.60
2018-05-06T01:15:48.664Z,74.60
2018-05-06T01:18:16.634Z,74.60
2018-05-06T01:20:44.590Z,74.60
2018-05-06T01:23:12.563Z,74.60
2018-05-06T01:25:41.348Z,74.60
2018-05-06T01:28:09.321Z,74.60
2018-05-06T01:30:37.288Z,74.50
2018-05-06T01:33:06.792Z,74.50
2018-05-06T01:35:34.759Z,74.40
2018-05-06T01:38:02.739Z,74.40
2018-05-06T01:40:30.694Z,74.40
2018-05-06T01:42:58.620Z,74.40
2018-05-06T01:45:26.633Z,74.40
2018-05-06T01:47:54.606Z,75.10
2018-05-06T01:50:22.586Z,74.50
2018-05-06T01:52:50.540Z,74.60
2018-05-06T01:55:18.628Z,74.60
2018-05-06T01:57:46.590Z,74.40
2018-05-06T02:00:16.090Z,74.50
2018-05-06T02:02:44.931Z,74.20
2018-05-06T02:05:12.845Z,75.30
2018-05-06T02:07:42.346Z,74.40
2018-05-06T02:10:10.315Z,74.50
2018-05-06T02:12:38.296Z,74.50
2018-05-06T02:15:07.074Z,74.70
2018-05-06T02:17:35.123Z,74.60
2018-05-06T02:20:03.112Z,74.80
2018-05-06T02:22:31.083Z,74.90
2018-05-06T02:25:00.486Z,74.80
2018-05-06T02:27:28.452Z,74.70
2018-05-06T02:29:56.420Z,74.90
2018-05-06T02:32:24.453Z,74.90
2018-05-06T02:34:52.477Z,75.00
2018-05-06T02:37:21.969Z,75.10
2018-05-06T02:39:49.946Z,75.00
2018-05-06T02:42:18.734Z,75.10
2018-05-06T02:44:47.515Z,75.10
2018-05-06T02:47:15.486Z,75.90
2018-05-06T02:49:44.997Z,75.30
2018-05-06T02:52:14.503Z,75.20
2018-05-06T02:54:43.175Z,75.20
2018-05-06T02:57:11.149Z,75.20
2018-05-06T02:59:40.754Z,75.30
2018-05-06T03:02:08.838Z,75.20
2018-05-06T03:04:36.792Z,75.30
2018-05-06T03:07:04.762Z,75.20
2018-05-06T03:09:32.745Z,75.20
2018-05-06T03:12:00.718Z,75.10
2018-05-06T03:14:28.671Z,75.00
2018-05-06T03:16:56.749Z,75.00
2018-05-06T03:19:24.657Z,75.00
2018-05-06T03:21:52.677Z,75.00
2018-05-06T03:24:20.644Z,75.00
2018-05-06T03:26:48.626Z,75.10
2018-05-06T03:29:18.124Z,75.10
2018-05-06T03:31:47.637Z,75.10
2018-05-06T03:34:16.425Z,75.00
2018-05-06T03:36:45.211Z,75.10
2018-05-06T03:39:13.999Z,75.20
2018-05-06T03:41:42.779Z,75.10
2018-05-06T03:44:10.744Z,75.10
2018-05-06T03:46:38.714Z,75.10
2018-05-06T03:49:06.695Z,75.10
2018-05-06T03:51:34.664Z,75.20
2018-05-06T03:54:02.622Z,75.10
2018-05-06T03:59:51.605Z,75.20
2018-05-06T04:02:38.520Z,75.20
2018-05-06T04:05:06.486Z,75.20
2018-05-06T04:07:34.569Z,75.10
2018-05-06T04:10:02.639Z,75.00
2018-05-06T04:12:30.710Z,75.20
2018-05-06T04:14:58.665Z,75.10
2018-05-06T04:17:26.636Z,75.20
2018-05-06T04:19:54.606Z,75.10
2018-05-06T04:22:22.575Z,75.30
2018-05-06T04:24:50.553Z,75.30
2018-05-06T04:27:18.615Z,75.40
2018-05-06T04:29:46.584Z,75.40
2018-05-06T04:32:14.562Z,75.50
2018-05-06T04:34:42.518Z,75.60
2018-05-06T04:37:10.487Z,75.50
2018-05-06T04:39:38.456Z,75.50
2018-05-06T04:42:06.432Z,75.50
2018-05-06T04:44:34.405Z,75.60
2018-05-06T04:47:02.367Z,75.50
2018-05-06T04:49:30.446Z,75.60
2018-05-06T04:51:58.403Z,75.50
2018-05-06T04:54:26.385Z,75.40
2018-05-06T04:56:54.341Z,75.50
2018-05-06T04:59:22.309Z,75.40
2018-05-06T05:01:50.290Z,75.30
2018-05-06T05:04:18.251Z,75.30
2018-05-06T05:06:46.330Z,75.30
2018-05-06T05:09:15.127Z,75.30
2018-05-06T05:11:43.087Z,75.30
2018-05-06T05:14:11.159Z,75.40
2018-05-06T05:16:39.134Z,75.20
2018-05-06T05:19:07.910Z,75.20
2018-05-06T05:21:36.704Z,74.80
2018-05-06T05:24:04.877Z,76.00
2018-05-06T05:26:33.657Z,75.10
2018-05-06T05:29:01.625Z,75.10
2018-05-06T05:31:29.594Z,75.10
2018-05-06T05:33:57.575Z,75.10
2018-05-06T05:36:25.532Z,75.20
2018-05-06T05:38:53.511Z,75.20
2018-05-06T05:41:23.013Z,75.30
2018-05-06T05:43:52.725Z,75.30
2018-05-06T05:46:22.230Z,75.30
2018-05-06T05:48:50.189Z,75.20
2018-05-06T05:51:18.160Z,75.30
2018-05-06T05:53:47.671Z,75.20
2018-05-06T05:56:16.454Z,75.10
2018-05-06T05:58:44.417Z,75.10
2018-05-06T06:01:12.386Z,75.10
2018-05-06T06:03:40.362Z,75.00
2018-05-06T06:06:08.329Z,74.90
2018-05-06T06:08:36.304Z,74.90
2018-05-06T06:11:04.274Z,74.80
2018-05-06T06:13:32.240Z,74.60
2018-05-06T06:16:00.205Z,74.60
2018-05-06T06:18:28.173Z,74.50
2018-05-06T06:20:56.854Z,74.40
2018-05-06T06:23:24.829Z,74.40
2018-05-06T06:25:54.332Z,74.30
2018-05-06T06:28:22.513Z,74.30
2018-05-06T06:30:50.482Z,74.20
2018-05-06T06:33:18.546Z,74.20
2018-05-06T06:35:46.509Z,74.30
2018-05-06T06:38:14.501Z,74.10
2018-05-06T06:40:43.272Z,73.90
2018-05-06T06:43:11.236Z,73.80
2018-05-06T06:45:39.213Z,73.90
2018-05-06T06:48:07.206Z,73.70
2018-05-06T06:50:35.245Z,73.70
2018-05-06T06:53:03.225Z,73.70
2018-05-06T06:55:31.297Z,73.60
2018-05-06T06:57:59.358Z,73.60
2018-05-06T07:00:27.325Z,73.50
2018-05-06T07:02:55.296Z,73.50
2018-05-06T07:05:23.264Z,73.50
2018-05-06T07:07:51.235Z,73.50
2018-05-06T07:10:20.126Z,73.40
2018-05-06T07:12:48.922Z,73.30
2018-05-06T07:15:16.878Z,73.40
2018-05-06T07:17:44.850Z,73.30
2018-05-06T07:20:12.815Z,73.30
2018-05-06T07:22:40.788Z,73.10
2018-05-06T07:25:08.756Z,73.00
2018-05-06T07:27:36.728Z,72.80
2018-05-06T07:30:06.343Z,72.80
2018-05-06T07:32:34.301Z,72.80
2018-05-06T07:35:02.267Z,72.70
2018-05-06T07:37:30.236Z,72.70
2018-05-06T07:39:58.208Z,72.70
2018-05-06T07:42:26.186Z,72.70
2018-05-06T07:44:54.154Z,73.50
2018-05-06T07:47:22.117Z,72.80
2018-05-06T07:49:50.085Z,72.90
2018-05-06T07:52:18.049Z,72.80
2018-05-06T07:54:46.018Z,72.60
2018-05-06T07:57:13.992Z,72.50
2018-05-06T07:59:41.960Z,72.30
2018-05-06T08:02:09.937Z,72.20
2018-05-06T08:04:37.893Z,72.00
2018-05-06T08:07:05.866Z,72.00
2018-05-06T08:09:33.833Z,72.10
2018-05-06T08:12:01.812Z,72.10
2018-05-06T08:14:29.781Z,72.20
2018-05-06T08:16:57.738Z,72.20
2018-05-06T08:19:25.719Z,72.10
2018-05-06T08:21:53.741Z,71.90
2018-05-06T08:24:21.753Z,71.70
2018-05-06T08:26:49.720Z,71.60
2018-05-06T08:29:17.695Z,71.60
2018-05-06T08:31:45.653Z,71.40
2018-05-06T08:34:13.626Z,71.30
2018-05-06T08:36:41.592Z,71.20
2018-05-06T08:39:09.521Z,71.00
2018-05-06T08:41:37.541Z,70.80
2018-05-06T08:44:05.612Z,70.60
2018-05-06T08:46:33.683Z,70.50
2018-05-06T08:49:01.646Z,70.60
2018-05-06T08:51:29.625Z,70.70
2018-05-06T08:53:57.686Z,70.60
2018-05-06T08:56:26.468Z,69.80
2018-05-06T08:58:54.445Z,69.80
2018-05-06T09:01:22.409Z,69.50
2018-05-06T09:03:50.490Z,69.30
2018-05-06T09:06:18.447Z,69.30
2018-05-06T09:08:46.427Z,69.30
2018-05-06T09:11:14.536Z,69.30
2018-05-06T09:13:42.558Z,69.30
2018-05-06T09:16:10.540Z,69.50
2018-05-06T09:18:38.497Z,69.50
2018-05-06T09:21:06.468Z,69.00
2018-05-06T09:23:34.446Z,68.50
2018-05-06T09:26:02.411Z,68.40
2018-05-06T09:28:30.373Z,68.40
2018-05-06T09:30:58.660Z,68.20
2018-05-06T09:33:26.620Z,67.60
2018-05-06T09:35:55.306Z,67.20
2018-05-06T09:38:23.385Z,67.10
2018-05-06T09:40:52.173Z,66.10
2018-05-06T09:43:20.135Z,66.20
2018-05-06T09:45:48.102Z,65.90
2018-05-06T09:48:16.072Z,66.10
2018-05-06T09:50:44.138Z,66.10
2018-05-06T09:53:12.107Z,66.00
2018-05-06T09:55:40.076Z,66.00
2018-05-06T09:58:08.050Z,65.80
2018-05-06T10:00:37.563Z,66.20
2018-05-06T10:03:05.523Z,66.20
2018-05-06T10:05:33.488Z,66.20
2018-05-06T10:08:01.460Z,66.30
2018-05-06T10:10:29.430Z,66.20
2018-05-06T10:12:57.406Z,65.80
2018-05-06T10:15:25.375Z,65.50
2018-05-06T10:17:53.331Z,65.10
2018-05-06T10:20:21.300Z,64.50
2018-05-06T10:22:49.282Z,63.80
2018-05-06T10:25:17.242Z,63.40
2018-05-06T10:27:45.219Z,62.40
2018-05-06T10:30:13.176Z,61.80
2018-05-06T10:32:41.145Z,61.20
2018-05-06T10:35:09.120Z,60.20
2018-05-06T10:37:37.083Z,59.60
2018-05-06T10:40:05.051Z,59.40
2018-05-06T10:42:33.032Z,58.60
2018-05-06T10:45:00.994Z,58.10
2018-05-06T10:47:28.963Z,57.60
2018-05-06T10:49:57.758Z,57.90
2018-05-06T10:52:25.720Z,57.20
2018-05-06T10:54:53.684Z,56.90
2018-05-06T10:57:21.767Z,56.10
2018-05-06T10:59:49.829Z,55.80
2018-05-06T11:02:17.795Z,55.60
2018-05-06T11:04:45.764Z,54.90
2018-05-06T11:07:13.744Z,54.50
2018-05-06T11:09:41.714Z,54.20
2018-05-06T11:12:09.683Z,53.90
2018-05-06T11:14:37.645Z,53.90
2018-05-06T11:17:05.620Z,53.80
2018-05-06T11:19:33.689Z,53.70
2018-05-06T11:22:01.664Z,53.70
2018-05-06T11:24:30.438Z,53.70
2018-05-06T11:26:58.405Z,53.60
2018-05-06T11:29:26.386Z,53.40
2018-05-06T11:31:54.343Z,53.10
2018-05-06T11:34:22.426Z,52.40
2018-05-06T11:36:50.388Z,52.00
2018-05-06T11:39:19.491Z,51.30
2018-05-06T11:41:47.452Z,50.80
2018-05-06T11:44:15.417Z,50.20
2018-05-06T11:46:43.493Z,49.90
2018-05-06T11:49:11.455Z,49.60
2018-05-06T11:51:39.437Z,49.20
2018-05-06T11:54:07.394Z,49.30
2018-05-06T11:56:35.374Z,48.90
2018-05-06T11:59:03.331Z,48.40
2018-05-06T12:01:31.408Z,47.80
2018-05-06T12:03:59.374Z,47.50
2018-05-06T12:06:27.454Z,47.40
2018-05-06T12:08:55.517Z,47.50
2018-05-06T12:11:23.495Z,47.60
2018-05-06T12:13:51.450Z,47.80
2018-05-06T12:16:19.424Z,47.60
2018-05-06T12:18:47.401Z,47.10
2018-05-06T12:21:15.359Z,46.70
2018-05-06T12:23:43.327Z,46.30
2018-05-06T12:26:11.299Z,45.90
2018-05-06T12:28:39.276Z,46.00
2018-05-06T12:31:07.246Z,46.20
2018-05-06T12:33:35.288Z,46.20
2018-05-06T12:36:03.274Z,46.30
2018-05-06T12:38:31.255Z,46.60
2018-05-06T12:41:00.086Z,46.90
2018-05-06T12:43:28.205Z,46.90
2018-05-06T12:45:56.173Z,47.20
2018-05-06T12:48:24.146Z,47.40
2018-05-06T12:50:52.110Z,47.50
2018-05-06T12:53:20.082Z,47.40
2018-05-06T12:55:48.164Z,47.50
2018-05-06T12:58:16.132Z,47.80
2018-05-06T13:00:44.195Z,48.20
2018-05-06T13:03:12.172Z,48.30
2018-05-06T13:05:40.140Z,48.30
2018-05-06T13:08:08.099Z,48.30
2018-05-06T13:10:36.070Z,48.30
2018-05-06T13:13:04.039Z,48.40
2018-05-06T13:15:32.015Z,48.50
2018-05-06T13:18:04.921Z,48.60
2018-05-06T13:20:35.430Z,48.90
2018-05-06T13:23:03.388Z,48.90
2018-05-06T13:25:31.350Z,48.90
2018-05-06T13:27:59.438Z,48.90
2018-05-06T13:30:27.502Z,48.90
2018-05-06T13:32:55.469Z,49.00
2018-05-06T13:35:23.652Z,48.80
2018-05-06T13:37:51.608Z,48.60
2018-05-06T13:40:19.578Z,48.50
2018-05-06T13:42:47.547Z,48.70
2018-05-06T13:45:15.526Z,48.70
2018-05-06T13:47:43.599Z,48.60
2018-05-06T13:50:13.147Z,48.40
2018-05-06T13:52:41.880Z,48.30
2018-05-06T13:55:09.852Z,48.30
2018-05-06T13:57:37.923Z,48.20
2018-05-06T14:00:05.901Z,48.10
2018-05-06T14:02:36.828Z,48.20
2018-05-06T14:05:04.910Z,48.00
2018-05-06T14:07:32.972Z,47.70
2018-05-06T14:10:01.027Z,47.40
2018-05-06T14:12:29.012Z,47.20
2018-05-06T14:14:56.990Z,47.00
2018-05-06T14:17:24.958Z,47.00
2018-05-06T14:19:52.920Z,47.00
2018-05-06T14:22:20.885Z,47.20
2018-05-06T14:24:48.853Z,47.20
2018-05-06T14:27:16.835Z,47.10
2018-05-06T14:29:44.803Z,47.20
2018-05-06T14:32:12.772Z,47.30
2018-05-06T14:34:40.740Z,47.50
2018-05-06T14:37:10.850Z,47.70
2018-05-06T14:39:38.892Z,47.80
2018-05-06T14:42:06.791Z,47.90
2018-05-06T14:44:34.760Z,47.80
2018-05-06T14:47:14.300Z,47.60
2018-05-06T14:49:42.277Z,47.70
2018-05-06T14:52:10.232Z,47.60
2018-05-06T14:54:38.202Z,47.40
2018-05-06T14:57:06.170Z,47.50
2018-05-06T14:59:34.095Z,47.60
2018-05-06T15:02:02.006Z,47.60
2018-05-06T15:04:29.975Z,47.60
2018-05-06T15:06:58.057Z,47.50
2018-05-06T15:09:26.026Z,47.40
2018-05-06T15:11:54.091Z,47.50
2018-05-06T15:14:33.666Z,47.70
2018-05-06T15:17:02.415Z,47.80
2018-05-06T15:19:30.383Z,47.80
2018-05-06T15:21:58.357Z,47.90
2018-05-06T15:24:26.439Z,48.00
2018-05-06T15:26:54.392Z,48.00
2018-05-06T15:29:22.363Z,48.10
2018-05-06T15:31:50.330Z,48.20
2018-05-06T15:34:18.299Z,48.30
2018-05-06T15:36:46.267Z,48.30
2018-05-06T15:39:14.236Z,48.40
2018-05-06T15:41:42.205Z,48.70
2018-05-06T15:44:10.180Z,49.00
2018-05-06T15:46:38.144Z,49.00
2018-05-06T15:49:06.227Z,48.90
2018-05-06T15:51:34.296Z,49.10
2018-05-06T15:54:02.361Z,49.10
2018-05-06T15:56:30.326Z,49.20
2018-05-06T15:58:58.295Z,49.30
2018-05-06T16:01:26.276Z,49.50
2018-05-06T16:04:07.647Z,49.70
2018-05-06T16:06:35.683Z,49.70
2018-05-06T16:09:03.784Z,49.80
2018-05-06T16:11:31.760Z,49.90
2018-05-06T16:13:59.740Z,50.10
2018-05-06T16:16:29.335Z,50.20
2018-05-06T16:18:57.316Z,50.20
2018-05-06T16:21:25.375Z,50.40
2018-05-06T16:23:53.360Z,50.40
2018-05-06T16:26:22.132Z,50.60
2018-05-06T16:28:50.113Z,50.60
2018-05-06T16:31:18.181Z,50.70
2018-05-06T16:33:46.255Z,50.70
2018-05-06T16:36:14.211Z,50.70
2018-05-06T16:38:42.617Z,50.70
2018-05-06T16:41:11.383Z,50.90
2018-05-06T16:43:39.347Z,50.80
2018-05-06T16:46:07.319Z,50.80
2018-05-06T16:48:35.291Z,50.80
2018-05-06T16:51:03.266Z,50.90
2018-05-06T16:53:31.222Z,50.90
2018-05-06T16:55:59.205Z,51.00
2018-05-06T16:58:27.266Z,51.30
2018-05-06T17:00:55.236Z,51.70
2018-05-06T17:03:23.212Z,52.20
2018-05-06T17:05:51.274Z,52.50
2018-05-06T17:08:19.354Z,52.50
2018-05-06T17:10:47.426Z,52.80
2018-05-06T17:13:15.383Z,52.90
2018-05-06T17:15:43.467Z,53.10
2018-05-06T17:18:11.427Z,53.30
2018-05-06T17:20:39.395Z,53.50
2018-05-06T17:23:07.364Z,53.70
2018-05-06T17:25:35.330Z,53.90
2018-05-06T17:28:03.215Z,54.10
2018-05-06T17:30:31.170Z,54.30
2018-05-06T17:32:59.957Z,54.80
2018-05-06T17:35:28.038Z,54.90
2018-05-06T17:37:55.993Z,55.20
2018-05-06T17:40:23.962Z,55.20
2018-05-06T17:42:52.018Z,55.20
2018-05-06T17:45:20.833Z,55.40
2018-05-06T17:47:50.331Z,55.40
2018-05-06T17:50:19.229Z,55.30
2018-05-06T17:52:47.185Z,55.40
2018-05-06T17:55:15.371Z,55.50
2018-05-06T17:57:43.432Z,55.50
2018-05-06T18:00:11.504Z,55.70
2018-05-06T18:02:39.482Z,55.80
2018-05-06T18:05:07.554Z,55.90
2018-05-06T18:07:35.674Z,55.70
2018-05-06T18:10:03.643Z,55.80
2018-05-06T18:12:31.644Z,55.80
2018-05-06T18:14:59.460Z,55.80
2018-05-06T18:17:28.175Z,55.90
2018-05-06T18:19:56.084Z,55.80
2018-05-06T18:22:24.955Z,55.70
2018-05-06T18:24:53.689Z,56.10
2018-05-06T18:27:22.415Z,55.50
2018-05-06T18:29:50.279Z,55.30
2018-05-06T18:32:18.229Z,55.30
2018-05-06T18:34:46.097Z,55.20
2018-05-06T18:37:13.962Z,55.30
2018-05-06T18:39:41.917Z,55.30
2018-05-06T18:42:09.772Z,55.40
2018-05-06T18:44:38.465Z,55.50
2018-05-06T18:47:07.236Z,55.70
2018-05-06T18:49:35.116Z,55.70
2018-05-06T18:52:03.833Z,56.00
2018-05-06T18:54:31.736Z,55.90
2018-05-06T18:56:59.664Z,56.00
2018-05-06T18:59:27.536Z,56.20
2018-05-06T19:01:55.409Z,56.10
2018-05-06T19:04:23.348Z,56.00
2018-05-06T19:06:51.352Z,56.40
2018-05-06T19:09:19.278Z,56.10
2018-05-06T19:11:48.033Z,55.90
2018-05-06T19:14:15.943Z,55.90
2018-05-06T19:16:43.876Z,56.10
2018-05-06T19:19:11.767Z,56.10
2018-05-06T19:21:41.570Z,56.40
2018-05-06T19:24:10.212Z,56.50
2018-05-06T19:26:38.143Z,56.40
2018-05-06T19:29:06.061Z,56.40
2018-05-06T19:31:33.908Z,56.50
2018-05-06T19:34:01.868Z,57.20
2018-05-06T19:36:29.813Z,56.60
2018-05-06T19:38:57.716Z,56.80
2018-05-06T19:41:25.653Z,57.10
2018-05-06T19:43:53.612Z,57.30
2018-05-06T19:46:22.347Z,57.40
2018-05-06T19:48:50.372Z,57.40
2018-05-06T19:51:19.093Z,58.40
2018-05-06T19:53:46.964Z,57.90
2018-05-06T19:56:14.919Z,57.80
2018-05-06T19:58:43.086Z,58.00
2018-05-06T20:01:10.968Z,58.20
2018-05-06T20:03:38.841Z,58.20
2018-05-06T20:06:06.724Z,58.20
2018-05-06T20:08:34.684Z,58.30
2018-05-06T20:11:02.584Z,58.40
2018-05-06T20:13:31.279Z,59.10
2018-05-06T20:16:03.364Z,59.20
2018-05-06T20:18:33.593Z,59.20
2018-05-06T20:21:04.673Z,59.40
2018-05-06T20:23:32.610Z,59.30
2018-05-06T20:26:00.500Z,59.40
2018-05-06T20:28:28.428Z,59.60
2018-05-06T20:30:56.300Z,59.80
2018-05-06T20:33:24.250Z,59.90
2018-05-06T20:35:52.884Z,60.30
2018-05-06T20:38:20.835Z,60.30
2018-05-06T20:40:48.721Z,60.50
2018-05-06T20:43:16.576Z,60.80
2018-05-06T20:45:44.431Z,60.80
2018-05-06T20:48:12.379Z,61.10
2018-05-06T20:50:40.302Z,61.40
2018-05-06T20:53:08.132Z,61.60
2018-05-06T20:55:36.037Z,61.80
2018-05-06T20:58:04.617Z,62.10
2018-05-06T21:00:32.528Z,62.40
2018-05-06T21:03:01.194Z,62.70
2018-05-06T21:05:29.864Z,62.70
2018-05-06T21:07:57.729Z,62.70
2018-05-06T21:10:25.634Z,62.90
2018-05-06T21:12:53.532Z,63.10
2018-05-06T21:15:21.395Z,63.20
2018-05-06T21:17:49.328Z,63.30
2018-05-06T21:20:17.954Z,63.40
2018-05-06T21:22:45.839Z,63.40
2018-05-06T21:25:13.736Z,63.50
2018-05-06T21:27:42.526Z,63.80
2018-05-06T21:30:10.461Z,63.70
2018-05-06T21:32:38.417Z,64.20
2018-05-06T21:35:07.249Z,64.10
2018-05-06T21:37:35.916Z,64.30
2018-05-06T21:40:03.913Z,64.20
2018-05-06T21:42:32.548Z,64.50
2018-05-06T21:45:00.533Z,64.40
2018-05-06T21:47:28.472Z,64.50
2018-05-06T21:49:56.378Z,64.60
2018-05-06T21:52:24.236Z,64.70
2018-05-06T21:54:52.724Z,64.80
2018-05-06T21:57:20.560Z,64.90
2018-05-06T21:59:48.438Z,65.10
2018-05-06T22:02:16.283Z,65.20
2018-05-06T22:04:44.213Z,65.40
2018-05-06T22:07:12.848Z,65.60
2018-05-06T22:09:41.554Z,65.70
2018-05-06T22:12:10.265Z,65.70
2018-05-06T22:14:38.928Z,65.70
2018-05-06T22:17:06.946Z,65.60
2018-05-06T22:19:34.779Z,65.70
2018-05-06T22:22:02.648Z,65.80
2018-05-06T22:24:31.363Z,65.90
2018-05-06T22:26:59.274Z,65.80
2018-05-06T22:29:27.166Z,65.80
2018-05-06T22:31:55.211Z,65.70
2018-05-06T22:34:23.081Z,66.30
2018-05-06T22:36:51.078Z,65.80
2018-05-06T22:39:19.708Z,65.90
2018-05-06T22:41:47.586Z,65.80
2018-05-06T22:44:15.536Z,65.80
2018-05-06T22:46:43.457Z,65.90
2018-05-06T22:49:11.291Z,66.00
2018-05-06T22:51:39.160Z,65.90
2018-05-06T22:54:07.105Z,65.90
2018-05-06T22:56:35.072Z,66.00
2018-05-06T22:59:03.047Z,66.10
2018-05-06T23:01:30.948Z,66.30
2018-05-06T23:03:58.809Z,66.30
2018-05-06T23:06:26.736Z,66.40
2018-05-06T23:08:54.644Z,66.60
2018-05-06T23:11:22.589Z,66.50
2018-05-06T23:13:50.459Z,66.50
2018-05-06T23:16:18.407Z,66.50
2018-05-06T23:18:46.595Z,66.60
2018-05-06T23:21:14.509Z,66.70
2018-05-06T23:23:42.359Z,66.90
2018-05-06T23:26:11.052Z,67.00
2018-05-06T23:28:38.996Z,66.90
2018-05-06T23:31:06.856Z,67.00
2018-05-06T23:33:34.799Z,67.00
2018-05-06T23:36:02.669Z,67.00
2018-05-06T23:38:30.592Z,67.10
2018-05-06T23:40:58.525Z,67.00
2018-05-06T23:43:26.388Z,67.10
2018-05-06T23:45:54.249Z,67.20
2018-05-06T23:48:22.147Z,67.20
2018-05-06T23:50:50.132Z,67.20
2018-05-06T23:53:18.016Z,67.20
2018-05-06T23:55:46.665Z,67.20
2018-05-06T23:58:14.532Z,67.10
